createdAt,value
2023-02-08T00:02:09.375Z,101603.63
2023-02-08T00:04:38.359Z,101602.94
2023-02-08T00:07:08.714Z,101605.78
2023-02-08T00:09:37.685Z,101598.06
2023-02-08T00:12:09.684Z,101598.19
2023-02-08T00:14:38.664Z,101598.19
2023-02-08T00:17:07.627Z,101591.56
2023-02-08T00:19:36.593Z,101592.53
2023-02-08T00:22:05.632Z,101602.94
2023-02-08T00:24:35.963Z,101591.81
2023-02-08T00:27:05.184Z,101589.25
2023-02-08T00:29:34.360Z,101595.34
2023-02-08T00:32:03.415Z,101594.78
2023-02-08T00:34:32.966Z,101599.41
2023-02-08T00:37:02.019Z,101588.41
2023-02-08T00:39:31.819Z,101597.22
2023-02-08T00:42:02.213Z,101599.91
2023-02-08T00:44:31.243Z,101596.66
2023-02-08T00:47:00.235Z,101592.34
2023-02-08T00:49:29.233Z,101588.28
2023-02-08T00:51:58.363Z,101590.28
2023-02-08T00:54:27.343Z,101588.53
2023-02-08T00:56:56.367Z,101588.53
2023-02-08T00:59:28.208Z,101587.84
2023-02-08T01:01:57.266Z,101595.56
2023-02-08T01:04:26.547Z,101589.63
2023-02-08T01:06:55.638Z,101593.38
2023-02-08T01:09:24.771Z,101592.84
2023-02-08T01:11:53.863Z,101601.50
2023-02-08T01:14:22.939Z,101594.19
2023-02-08T01:16:53.394Z,101593.63
2023-02-08T01:19:22.504Z,101592.00
2023-02-08T01:21:51.573Z,101584.53
2023-02-08T01:24:20.915Z,101597.41
2023-02-08T01:26:49.941Z,101592.38
2023-02-08T01:29:18.979Z,101596.72
2023-02-08T01:31:48.202Z,101598.72
2023-02-08T01:34:18.588Z,101581.69
2023-02-08T01:36:47.625Z,101580.88
2023-02-08T01:39:16.615Z,101579.25
2023-02-08T01:41:47.546Z,101577.59
2023-02-08T01:45:28.906Z,101573.00
2023-02-08T01:48:10.452Z,101571.34
2023-02-08T01:50:49.330Z,101578.13
2023-02-08T01:53:18.745Z,101573.91
2023-02-08T01:55:52.490Z,101582.59
2023-02-08T01:58:22.914Z,101580.00
2023-02-08T02:00:52.023Z,101571.47
2023-02-08T02:03:25.818Z,101562.97
2023-02-08T02:06:02.960Z,101568.13
2023-02-08T02:08:33.655Z,101567.41
2023-02-08T02:11:03.361Z,101561.63
2023-02-08T02:13:33.671Z,101562.66
2023-02-08T02:16:02.656Z,101553.47
2023-02-08T02:18:34.745Z,101559.56
2023-02-08T02:21:42.498Z,101559.09
2023-02-08T02:25:02.569Z,101573.16
2023-02-08T02:27:44.400Z,101542.19
2023-02-08T02:30:58.504Z,101555.53
2023-02-08T02:33:48.731Z,101543.06
2023-02-08T02:36:28.891Z,101556.84
2023-02-08T02:39:09.536Z,101544.13
2023-02-08T02:42:06.772Z,101542.41
2023-02-08T02:44:45.862Z,101549.28
2023-02-08T02:47:25.424Z,101549.41
2023-02-08T02:50:03.916Z,101549.28
2023-02-08T02:52:41.029Z,101546.00
2023-02-08T02:55:15.817Z,101547.78
2023-02-08T02:57:48.308Z,101545.22
2023-02-08T03:00:24.459Z,101546.28
2023-02-08T03:02:55.621Z,101531.78
2023-02-08T03:05:26.891Z,101532.75
2023-02-08T03:08:21.388Z,101526.25
2023-02-08T03:11:12.696Z,101528.38
2023-02-08T03:14:04.186Z,101528.63
2023-02-08T03:16:51.327Z,101531.31
2023-02-08T03:19:28.298Z,101533.22
2023-02-08T03:22:03.776Z,101513.50
2023-02-08T03:24:43.447Z,101529.81
2023-02-08T03:27:23.731Z,101521.44
2023-02-08T03:30:00.138Z,101520.63
2023-02-08T03:32:39.082Z,101521.44
2023-02-08T03:35:17.238Z,101518.31
2023-02-08T03:37:55.246Z,101522.63
2023-02-08T03:40:28.708Z,101521.00
2023-02-08T03:43:06.909Z,101526.13
2023-02-08T03:45:40.926Z,101526.13
2023-02-08T03:48:14.209Z,101527.91
2023-02-08T03:50:47.957Z,101526.25
2023-02-08T03:53:22.141Z,101524.53
2023-02-08T03:55:57.289Z,101525.34
2023-02-08T03:58:33.006Z,101523.56
2023-02-08T04:01:07.578Z,101528.69
2023-02-08T04:03:37.760Z,101528.81
2023-02-08T04:06:07.829Z,101529.06
2023-02-08T04:08:38.203Z,101523.94
2023-02-08T04:11:07.420Z,101530.84
2023-02-08T04:13:36.407Z,101514.63
2023-02-08T04:16:05.707Z,101524.06
2023-02-08T04:18:34.772Z,101523.16
2023-02-08T04:21:07.329Z,101518.81
2023-02-08T04:23:37.623Z,101510.31
2023-02-08T04:26:07.685Z,101513.78
2023-02-08T04:28:36.736Z,101509.59
2023-02-08T04:31:06.110Z,101503.81
2023-02-08T04:33:35.240Z,101506.22
2023-02-08T04:36:04.445Z,101512.31
2023-02-08T04:38:33.437Z,101512.31
2023-02-08T04:41:03.994Z,101500.41
2023-02-08T04:43:33.095Z,101511.75
2023-02-08T04:46:02.082Z,101509.31
2023-02-08T04:48:31.391Z,101517.13
2023-02-08T04:51:00.699Z,101518.75
2023-02-08T04:53:29.743Z,101515.38
2023-02-08T04:55:58.715Z,101513.63
2023-02-08T04:58:29.037Z,101519.47
2023-02-08T05:00:58.005Z,101520.13
2023-02-08T05:03:27.058Z,101517.56
2023-02-08T05:05:59.144Z,101519.22
2023-02-08T05:08:29.107Z,101528.66
2023-02-08T05:10:58.079Z,101519.34
2023-02-08T05:13:28.461Z,101521.19
2023-02-08T05:15:57.475Z,101516.91
2023-02-08T05:18:26.463Z,101526.22
2023-02-08T05:21:00.140Z,101527.16
2023-02-08T05:23:32.073Z,101527.16
2023-02-08T05:26:01.221Z,101523.66
2023-02-08T05:28:31.652Z,101519.47
2023-02-08T05:31:00.665Z,101524.59
2023-02-08T05:33:29.710Z,101514.19
2023-02-08T05:35:58.648Z,101516.91
2023-02-08T05:38:27.667Z,101520.38
2023-02-08T05:40:56.667Z,101514.44
2023-02-08T05:43:25.762Z,101518.75
2023-02-08T05:45:56.203Z,101519.84
2023-02-08T05:48:25.281Z,101524.38
2023-02-08T05:50:54.312Z,101513.56
2023-02-08T05:53:23.360Z,101519.50
2023-02-08T05:55:55.370Z,101509.22
2023-02-08T05:58:24.424Z,101514.38
2023-02-08T06:00:57.034Z,101516.25
2023-02-08T06:03:26.010Z,101512.22
2023-02-08T06:05:57.374Z,101521.91
2023-02-08T06:08:28.660Z,101522.84
2023-02-08T06:10:57.692Z,101527.16
2023-02-08T06:13:26.800Z,101526.47
2023-02-08T06:15:57.538Z,101519.69
2023-02-08T06:18:26.828Z,101535.22
2023-02-08T06:20:56.437Z,101531.84
2023-02-08T06:23:25.925Z,101524.28
2023-02-08T06:25:54.900Z,101534.66
2023-02-08T06:28:24.257Z,101524.72
2023-02-08T06:30:53.886Z,101540.25
2023-02-08T06:33:25.295Z,101521.47
2023-02-08T06:35:54.996Z,101541.06
2023-02-08T06:38:23.986Z,101540.38
2023-02-08T06:40:53.037Z,101540.38
2023-02-08T06:43:24.992Z,101540.38
2023-02-08T06:45:53.993Z,101540.38
2023-02-08T06:48:26.650Z,101542.13
2023-02-08T06:50:55.814Z,101553.19
2023-02-08T06:53:24.838Z,101553.19
2023-02-08T06:55:54.610Z,101554.69
2023-02-08T06:58:23.961Z,101550.41
2023-02-08T07:00:52.948Z,101552.97
2023-02-08T07:03:22.644Z,101546.91
2023-02-08T07:06:04.657Z,101553.53
2023-02-08T07:08:35.011Z,101549.22
2023-02-08T07:11:09.257Z,101555.75
2023-02-08T07:13:39.396Z,101540.34
2023-02-08T07:16:11.841Z,101541.06
2023-02-08T07:18:40.959Z,101540.09
2023-02-08T07:21:11.785Z,101536.75
2023-02-08T07:23:41.275Z,101539.97
2023-02-08T07:26:12.748Z,101537.16
2023-02-08T07:28:42.361Z,101537.75
2023-02-08T07:31:13.736Z,101529.75
2023-02-08T07:33:43.448Z,101539.13
2023-02-08T07:36:14.055Z,101527.91
2023-02-08T07:38:45.345Z,101525.09
2023-02-08T07:41:15.597Z,101515.25
2023-02-08T07:43:44.969Z,101524.47
2023-02-08T07:46:16.308Z,101521.78
2023-02-08T07:48:45.684Z,101517.19
2023-02-08T07:51:15.997Z,101523.69
2023-02-08T07:53:45.083Z,101521.69
2023-02-08T07:56:17.509Z,101521.44
2023-02-08T07:58:46.454Z,101527.00
2023-02-08T08:01:22.440Z,101529.19
2023-02-08T08:03:53.058Z,101531.38
2023-02-08T08:06:24.672Z,101526.53
2023-02-08T08:08:53.890Z,101521.47
2023-02-08T08:11:23.680Z,101526.50
2023-02-08T08:13:53.204Z,101515.44
2023-02-08T08:16:22.530Z,101516.13
2023-02-08T08:18:53.868Z,101524.56
2023-02-08T08:21:26.423Z,101519.31
2023-02-08T08:23:55.903Z,101520.84
2023-02-08T08:26:28.016Z,101526.53
2023-02-08T08:28:59.474Z,101519.25
2023-02-08T08:31:32.692Z,101528.47
2023-02-08T08:34:01.909Z,101516.97
2023-02-08T08:36:34.526Z,101519.78
2023-02-08T08:39:03.534Z,101517.59
2023-02-08T08:41:32.647Z,101515.16
2023-02-08T08:44:01.610Z,101520.53
2023-02-08T08:46:30.710Z,101508.69
2023-02-08T08:49:00.347Z,101504.56
2023-02-08T08:51:31.451Z,101508.03
2023-02-08T08:54:01.853Z,101496.13
2023-02-08T08:56:30.947Z,101503.06
2023-02-08T08:59:00.349Z,101499.69
2023-02-08T09:01:29.500Z,101485.31
2023-02-08T09:03:58.522Z,101486.94
2023-02-08T09:06:27.532Z,101484.50
2023-02-08T09:09:00.807Z,101492.09
2023-02-08T09:11:29.970Z,101492.88
2023-02-08T09:14:04.597Z,101492.97
2023-02-08T09:16:35.033Z,101489.38
2023-02-08T09:19:05.499Z,101493.50
2023-02-08T09:21:35.679Z,101493.25
2023-02-08T09:24:07.089Z,101486.19
2023-02-08T09:26:36.299Z,101492.09
2023-02-08T09:29:05.965Z,101503.13
2023-02-08T09:31:38.260Z,101495.72
2023-02-08T09:34:08.404Z,101490.56
2023-02-08T09:36:41.903Z,101489.78
2023-02-08T09:39:16.783Z,101489.91
2023-02-08T09:42:36.095Z,101490.22
2023-02-08T09:45:58.128Z,101488.28
2023-02-08T09:48:32.526Z,101486.66
2023-02-08T09:51:10.121Z,101479.97
2023-02-08T09:53:46.556Z,101485.78
2023-02-08T09:56:26.322Z,101476.84
2023-02-08T09:58:56.355Z,101469.97
2023-02-08T10:01:30.194Z,101471.88
2023-02-08T10:04:03.850Z,101463.66
2023-02-08T10:06:33.237Z,101465.81
2023-02-08T10:09:09.326Z,101461.97
2023-02-08T10:11:58.186Z,101464.59
2023-02-08T10:14:44.326Z,101466.34
2023-02-08T10:17:53.757Z,101457.72
2023-02-08T10:20:38.737Z,101457.50
2023-02-08T10:23:24.896Z,101445.56
2023-02-08T10:26:13.719Z,101450.84
2023-02-08T10:29:17.563Z,101442.09
2023-02-08T10:32:17.466Z,101436.75
2023-02-08T10:34:49.216Z,101438.59
2023-02-08T10:37:28.803Z,101431.59
2023-02-08T10:40:08.635Z,101424.94
2023-02-08T10:42:38.695Z,101425.47
2023-02-08T10:45:24.580Z,101420.00
2023-02-08T10:47:55.660Z,101414.47
2023-02-08T10:50:30.685Z,101414.38
2023-02-08T10:52:59.676Z,101413.44
2023-02-08T10:55:30.059Z,101408.47
2023-02-08T10:58:02.297Z,101405.53
2023-02-08T11:00:36.326Z,101393.94
2023-02-08T11:03:19.574Z,101396.06
2023-02-08T11:05:48.680Z,101397.06
2023-02-08T11:08:19.789Z,101398.50
2023-02-08T11:10:59.817Z,101394.13
2023-02-08T11:13:36.649Z,101392.13
2023-02-08T11:16:10.905Z,101394.91
2023-02-08T11:18:50.224Z,101391.09
2023-02-08T11:21:26.349Z,101392.31
2023-02-08T11:23:58.102Z,101389.31
2023-02-08T11:26:36.081Z,101374.41
2023-02-08T11:29:13.115Z,101382.06
2023-02-08T11:32:00.660Z,101378.41
2023-02-08T11:34:32.716Z,101375.22
2023-02-08T11:37:14.165Z,101362.31
2023-02-08T11:39:49.722Z,101353.50
2023-02-08T11:42:24.453Z,101378.81
2023-02-08T11:44:55.058Z,101351.84
2023-02-08T11:47:29.548Z,101364.53
2023-02-08T11:50:01.907Z,101356.47
2023-02-08T11:52:33.966Z,101356.81
2023-02-08T11:55:24.790Z,101348.53
2023-02-08T11:57:56.064Z,101351.75
2023-02-08T12:00:28.498Z,101352.09
2023-02-08T12:03:02.416Z,101354.53
2023-02-08T12:05:42.145Z,101351.28
2023-02-08T12:08:21.782Z,101346.06
2023-02-08T12:11:08.189Z,101355.72
2023-02-08T12:14:02.424Z,101344.66
2023-02-08T12:16:52.441Z,101334.03
2023-02-08T12:20:11.411Z,101349.34
2023-02-08T12:22:45.130Z,101337.69
2023-02-08T12:25:29.096Z,101335.75
2023-02-08T12:28:06.743Z,101330.94
2023-02-08T12:30:40.650Z,101318.06
2023-02-08T12:33:33.647Z,101312.88
2023-02-08T12:36:41.691Z,101318.47
2023-02-08T12:39:48.289Z,101312.88
2023-02-08T12:42:36.837Z,101308.41
2023-02-08T12:45:28.431Z,101308.03
2023-02-08T12:48:15.082Z,101301.19
2023-02-08T12:50:52.310Z,101302.78
2023-02-08T12:53:32.355Z,101303.41
2023-02-08T12:56:08.224Z,101283.41
2023-02-08T12:58:42.771Z,101289.63
2023-02-08T13:01:18.231Z,101276.13
2023-02-08T13:03:54.231Z,101276.09
2023-02-08T13:06:26.733Z,101278.41
2023-02-08T13:09:02.969Z,101267.13
2023-02-08T13:11:40.914Z,101271.03
2023-02-08T13:14:24.559Z,101273.00
2023-02-08T13:17:00.358Z,101263.13
2023-02-08T13:19:37.106Z,101256.44
2023-02-08T13:22:06.914Z,101255.97
2023-02-08T13:24:41.384Z,101257.50
2023-02-08T13:27:24.425Z,101253.81
2023-02-08T13:29:56.515Z,101252.91
2023-02-08T13:32:34.795Z,101259.25
2023-02-08T13:35:17.593Z,101256.78
2023-02-08T13:38:23.751Z,101255.81
2023-02-08T13:41:14.485Z,101241.72
2023-02-08T13:43:52.749Z,101251.63
2023-02-08T13:46:26.257Z,101243.69
2023-02-08T13:48:57.738Z,101240.00
2023-02-08T13:51:59.909Z,101236.44
2023-02-08T13:54:31.569Z,101233.31
2023-02-08T13:57:27.129Z,101238.53
2023-02-08T14:00:23.128Z,101241.09
2023-02-08T14:03:03.481Z,101255.88
2023-02-08T14:05:48.526Z,101238.50
2023-02-08T14:08:25.769Z,101239.91
2023-02-08T14:11:13.443Z,101229.97
2023-02-08T14:13:50.086Z,101237.03
2023-02-08T14:16:33.136Z,101230.75
2023-02-08T14:19:04.463Z,101234.06
2023-02-08T14:21:38.510Z,101223.56
2023-02-08T14:24:22.943Z,101230.28
2023-02-08T14:27:09.704Z,101234.38
2023-02-08T14:29:43.431Z,101227.28
2023-02-08T14:32:25.295Z,101220.06
2023-02-08T14:35:04.427Z,101222.00
2023-02-08T14:37:35.906Z,101205.19
2023-02-08T14:40:49.700Z,101220.63
2023-02-08T14:43:35.736Z,101213.38
2023-02-08T14:46:46.483Z,101212.25
2023-02-08T14:49:17.967Z,101211.19
2023-02-08T14:51:53.255Z,101205.53
2023-02-08T14:54:29.214Z,101197.91
2023-02-08T14:57:02.876Z,101193.72
2023-02-08T14:59:35.396Z,101181.09
2023-02-08T15:02:15.995Z,101186.63
2023-02-08T15:04:46.845Z,101183.38
2023-02-08T15:07:33.299Z,101176.94
2023-02-08T15:10:05.683Z,101176.81
2023-02-08T15:12:38.697Z,101176.34
2023-02-08T15:15:25.779Z,101179.47
2023-02-08T15:17:57.264Z,101177.38
2023-02-08T15:20:29.334Z,101175.34
2023-02-08T15:23:03.773Z,101177.63
2023-02-08T15:25:34.980Z,101181.38
2023-02-08T15:28:16.509Z,101173.94
2023-02-08T15:30:57.134Z,101182.03
2023-02-08T15:33:28.049Z,101178.84
2023-02-08T15:36:00.783Z,101175.25
2023-02-08T15:38:31.102Z,101178.84
2023-02-08T15:41:09.425Z,101177.84
2023-02-08T15:43:40.812Z,101175.44
2023-02-08T15:46:22.983Z,101174.59
2023-02-08T15:48:54.330Z,101180.13
2023-02-08T15:51:24.388Z,101182.09
2023-02-08T15:53:56.103Z,101184.03
2023-02-08T15:56:37.493Z,101198.34
2023-02-08T15:59:16.006Z,101187.03
2023-02-08T16:01:48.751Z,101189.31
2023-02-08T16:04:19.509Z,101186.44
2023-02-08T16:06:53.141Z,101182.56
2023-02-08T16:09:27.238Z,101197.47
2023-02-08T16:12:00.398Z,101197.34
2023-02-08T16:14:32.270Z,101186.84
2023-02-08T16:17:37.401Z,101198.50
2023-02-08T16:20:30.768Z,101196.59
2023-02-08T16:23:24.020Z,101200.50
2023-02-08T16:25:53.225Z,101198.88
2023-02-08T16:28:29.116Z,101194.69
2023-02-08T16:31:00.935Z,101202.78
2023-02-08T16:33:31.720Z,101202.78
2023-02-08T16:36:02.746Z,101206.69
2023-02-08T16:38:35.134Z,101203.44
2023-02-08T16:41:14.471Z,101202.97
2023-02-08T16:43:44.715Z,101207.97
2023-02-08T16:46:27.735Z,101194.22
2023-02-08T16:48:58.082Z,101203.44
2023-02-08T16:51:31.921Z,101204.59
2023-02-08T16:54:07.064Z,101204.13
2023-02-08T16:56:39.999Z,101212.38
2023-02-08T16:59:11.439Z,101206.72
2023-02-08T17:01:44.239Z,101201.88
2023-02-08T17:04:13.746Z,101204.47
2023-02-08T17:06:46.672Z,101202.84
2023-02-08T17:09:15.809Z,101200.59
2023-02-08T17:11:44.844Z,101190.41
2023-02-08T17:14:13.810Z,101203.50
2023-02-08T17:16:43.931Z,101196.06
2023-02-08T17:19:18.618Z,101198.03
2023-02-08T17:21:48.918Z,101203.53
2023-02-08T17:24:17.931Z,101201.25
2023-02-08T17:26:47.385Z,101210.94
2023-02-08T17:29:16.392Z,101210.94
2023-02-08T17:31:48.336Z,101205.78
2023-02-08T17:34:20.386Z,101215.34
2023-02-08T17:36:50.753Z,101218.88
2023-02-08T17:39:20.104Z,101221.66
2023-02-08T17:41:49.339Z,101220.00
2023-02-08T17:44:20.695Z,101216.81
2023-02-08T17:46:50.296Z,101211.13
2023-02-08T17:49:19.314Z,101213.09
2023-02-08T17:51:52.056Z,101208.06
2023-02-08T17:54:21.217Z,101209.03
2023-02-08T17:56:56.525Z,101213.56
2023-02-08T17:59:28.482Z,101220.81
2023-02-08T18:01:57.600Z,101218.41
2023-02-08T18:04:26.680Z,101227.16
2023-02-08T18:06:57.064Z,101216.97
2023-02-08T18:09:26.067Z,101216.47
2023-02-08T18:11:55.083Z,101215.84
2023-02-08T18:14:24.137Z,101220.34
2023-02-08T18:16:53.138Z,101220.97
2023-02-08T18:19:24.407Z,101222.28
2023-02-08T18:21:53.472Z,101224.53
2023-02-08T18:24:23.956Z,101219.69
2023-02-08T18:26:53.055Z,101220.00
2023-02-08T18:29:22.231Z,101218.41
2023-02-08T18:31:54.882Z,101223.72
2023-02-08T18:34:23.997Z,101224.84
2023-02-08T18:36:53.064Z,101219.34
2023-02-08T18:39:24.235Z,101217.06
2023-02-08T18:41:53.467Z,101219.81
2023-02-08T18:44:22.440Z,101219.97
2023-02-08T18:46:51.459Z,101214.19
2023-02-08T18:49:20.569Z,101220.63
2023-02-08T18:51:49.660Z,101215.13
2023-02-08T18:54:19.284Z,101218.84
2023-02-08T18:56:53.994Z,101218.00
2023-02-08T18:59:23.031Z,101214.94
2023-02-08T19:01:52.097Z,101212.69
2023-02-08T19:04:23.879Z,101210.56
2023-02-08T19:06:53.231Z,101215.06
2023-02-08T19:09:22.210Z,101212.16
2023-02-08T19:11:52.731Z,101222.97
2023-02-08T19:14:21.720Z,101215.66
2023-02-08T19:16:50.688Z,101212.44
2023-02-08T19:19:19.749Z,101211.09
2023-02-08T19:21:48.733Z,101214.00
2023-02-08T19:24:19.598Z,101209.31
2023-02-08T19:26:48.956Z,101221.06
2023-02-08T19:29:22.277Z,101217.34
2023-02-08T19:31:51.425Z,101222.16
2023-02-08T19:34:21.016Z,101221.66
2023-02-08T19:36:53.036Z,101221.00
2023-02-08T19:39:26.151Z,101230.97
2023-02-08T19:41:58.581Z,101223.84
2023-02-08T19:44:30.742Z,101229.63
2023-02-08T19:47:00.017Z,101221.84
2023-02-08T19:49:29.762Z,101224.06
2023-02-08T19:51:58.780Z,101222.75
2023-02-08T19:54:27.824Z,101241.94
2023-02-08T19:56:56.864Z,101232.69
2023-02-08T19:59:33.138Z,101228.66
2023-02-08T20:02:04.857Z,101229.09
2023-02-08T20:04:34.233Z,101224.25
2023-02-08T20:07:03.190Z,101224.25
2023-02-08T20:09:32.311Z,101221.84
2023-02-08T20:12:01.381Z,101213.06
2023-02-08T20:14:33.949Z,101224.22
2023-02-08T20:17:04.501Z,101219.34
2023-02-08T20:19:37.059Z,101213.56
2023-02-08T20:22:06.555Z,101215.47
2023-02-08T20:24:35.582Z,101225.78
2023-02-08T20:27:05.560Z,101222.53
2023-02-08T20:29:35.962Z,101214.28
2023-02-08T20:32:05.298Z,101229.91
2023-02-08T20:34:34.399Z,101230.06
2023-02-08T20:37:08.197Z,101230.06
2023-02-08T20:39:38.105Z,101229.56
2023-02-08T20:42:07.324Z,101228.88
2023-02-08T20:44:37.889Z,101230.81
2023-02-08T20:47:08.937Z,101237.88
2023-02-08T20:49:40.094Z,101226.75
2023-02-08T20:52:09.088Z,101220.78
2023-02-08T20:54:39.097Z,101218.38
2023-02-08T20:57:10.895Z,101225.59
2023-02-08T20:59:41.805Z,101236.03
2023-02-08T21:02:16.790Z,101214.91
2023-02-08T21:04:48.757Z,101227.16
2023-02-08T21:07:18.328Z,101221.31
2023-02-08T21:09:50.591Z,101217.13
2023-02-08T21:12:19.611Z,101212.25
2023-02-08T21:14:50.049Z,101215.13
2023-02-08T21:17:19.185Z,101209.19
2023-02-08T21:19:51.420Z,101203.38
2023-02-08T21:22:20.682Z,101189.66
2023-02-08T21:24:49.682Z,101198.22
2023-02-08T21:27:19.143Z,101192.91
2023-02-08T21:29:52.860Z,101196.16
2023-02-08T21:32:24.544Z,101195.50
2023-02-08T21:34:53.690Z,101194.66
2023-02-08T21:37:25.643Z,101194.81
2023-02-08T21:39:54.769Z,101190.78
2023-02-08T21:42:23.755Z,101194.47
2023-02-08T21:44:54.798Z,101192.84
2023-02-08T21:47:23.824Z,101178.34
2023-02-08T21:50:10.501Z,101174.97
2023-02-08T21:52:56.859Z,101173.31
2023-02-08T21:55:26.015Z,101172.25
2023-02-08T21:57:54.992Z,101179.97
2023-02-08T22:00:25.709Z,101168.56
2023-02-08T22:02:54.838Z,101165.84
2023-02-08T22:05:41.214Z,101152.94
2023-02-08T22:08:10.200Z,101164.19
2023-02-08T22:10:41.034Z,101163.25
2023-02-08T22:13:11.928Z,101151.63
2023-02-08T22:15:42.311Z,101148.22
2023-02-08T22:18:11.681Z,101150.81
2023-02-08T22:20:40.879Z,101149.34
2023-02-08T22:23:09.940Z,101152.88
2023-02-08T22:25:40.021Z,101145.28
2023-02-08T22:28:09.033Z,101152.38
2023-02-08T22:30:38.191Z,101147.38
2023-02-08T22:33:08.570Z,101152.66
2023-02-08T22:35:40.654Z,101142.50
2023-02-08T22:38:09.961Z,101146.84
2023-02-08T22:40:43.193Z,101144.25
2023-02-08T22:43:12.398Z,101142.50
2023-02-08T22:45:42.362Z,101144.94
2023-02-08T22:48:12.864Z,101133.16
2023-02-08T22:50:41.870Z,101146.03
2023-02-08T22:53:10.831Z,101146.19
2023-02-08T22:55:39.912Z,101143.63
2023-02-08T22:58:08.831Z,101144.41
2023-02-08T23:00:37.843Z,101146.03
2023-02-08T23:03:06.937Z,101148.34
2023-02-08T23:05:42.208Z,101141.38
2023-02-08T23:08:12.931Z,101141.38
2023-02-08T23:10:42.191Z,101141.38
2023-02-08T23:13:11.523Z,101139.94
2023-02-08T23:15:44.480Z,101138.97
2023-02-08T23:18:13.678Z,101140.59
2023-02-08T23:20:44.343Z,101128.50
2023-02-08T23:23:13.519Z,101125.16
2023-02-08T23:25:44.780Z,101118.34
2023-02-08T23:28:14.743Z,101118.66
2023-02-08T23:30:44.666Z,101115.44
2023-02-08T23:33:13.958Z,101131.19
2023-02-08T23:35:44.275Z,101121.03
2023-02-08T23:38:13.289Z,101122.00
2023-02-08T23:40:42.877Z,101124.56
2023-02-08T23:43:11.968Z,101127.78
2023-02-08T23:45:41.021Z,101126.19
2023-02-08T23:48:10.148Z,101124.56
2023-02-08T23:50:39.277Z,101116.84
2023-02-08T23:53:11.838Z,101132.44
2023-02-08T23:55:41.146Z,101123.09
2023-02-08T23:58:10.115Z,101127.28
